createdAt,value
2023-05-10T00:01:08.616Z,101454.91
2023-05-10T00:03:36.752Z,101453.75
2023-05-10T00:06:05.014Z,101461.56
2023-05-10T00:08:32.908Z,101466.19
2023-05-10T00:11:02.601Z,101466.81
2023-05-10T00:13:30.603Z,101460.47
2023-05-10T00:15:58.536Z,101449.13
2023-05-10T00:18:26.788Z,101454.78
2023-05-10T00:20:54.714Z,101456.28
2023-05-10T00:23:22.601Z,101461.63
2023-05-10T00:25:50.526Z,101450.09
2023-05-10T00:28:19.898Z,101452.75
2023-05-10T00:30:47.810Z,101460.78
2023-05-10T00:33:15.765Z,101457.97
2023-05-10T00:35:43.872Z,101459.16
2023-05-10T00:38:11.959Z,101459.72
2023-05-10T00:40:40.084Z,101461.69
2023-05-10T00:43:13.432Z,101459.56
2023-05-10T00:45:42.922Z,101458.88
2023-05-10T00:48:11.125Z,101456.22
2023-05-10T00:50:39.759Z,101454.53
2023-05-10T00:53:07.968Z,101450.72
2023-05-10T00:55:35.846Z,101456.91
2023-05-10T00:58:03.829Z,101462.53
2023-05-10T01:00:31.762Z,101461.22
2023-05-10T01:03:02.004Z,101453.53
2023-05-10T01:05:30.030Z,101454.38
2023-05-10T01:07:59.183Z,101465.28
2023-05-10T01:10:27.131Z,101459.78
2023-05-10T01:12:55.092Z,101454.59
2023-05-10T01:15:23.354Z,101459.25
2023-05-10T01:17:51.265Z,101459.25
2023-05-10T01:20:20.833Z,101457.56
2023-05-10T01:23:33.367Z,101458.25
2023-05-10T01:26:17.009Z,101455.88
2023-05-10T01:29:13.820Z,101453.91
2023-05-10T01:32:08.217Z,101454.59
2023-05-10T01:34:37.741Z,101451.94
2023-05-10T01:37:08.307Z,101451.25
2023-05-10T01:39:40.720Z,101452.09
2023-05-10T01:42:10.350Z,101458.25
2023-05-10T01:44:41.318Z,101455.88
2023-05-10T01:47:13.882Z,101454.69
2023-05-10T01:49:43.943Z,101456.91
2023-05-10T01:52:12.985Z,101455.50
2023-05-10T01:54:41.086Z,101447.22
2023-05-10T01:57:10.132Z,101455.88
2023-05-10T01:59:41.618Z,101450.41
2023-05-10T02:02:12.868Z,101454.91
2023-05-10T02:04:41.670Z,101449.25
2023-05-10T02:07:09.879Z,101450.94
2023-05-10T02:09:37.910Z,101456.97
2023-05-10T02:12:07.121Z,101452.31
2023-05-10T02:14:36.661Z,101454.00
2023-05-10T02:17:07.049Z,101439.94
2023-05-10T02:19:36.435Z,101443.94
2023-05-10T02:22:04.567Z,101443.31
2023-05-10T02:24:34.120Z,101444.28
2023-05-10T02:27:02.353Z,101454.00
2023-05-10T02:29:30.324Z,101445.00
2023-05-10T02:31:58.504Z,101451.31
2023-05-10T02:34:27.411Z,101443.00
2023-05-10T02:36:57.116Z,101448.44
2023-05-10T02:39:25.332Z,101452.63
2023-05-10T02:41:53.236Z,101451.16
2023-05-10T02:44:21.545Z,101454.38
2023-05-10T02:46:49.592Z,101452.63
2023-05-10T02:49:17.693Z,101452.63
2023-05-10T02:51:47.258Z,101457.66
2023-05-10T02:54:19.792Z,101461.63
2023-05-10T02:56:49.804Z,101455.06
2023-05-10T02:59:17.715Z,101454.59
2023-05-10T03:01:45.994Z,101461.63
2023-05-10T03:04:14.389Z,101457.66
2023-05-10T03:06:43.520Z,101452.16
2023-05-10T03:09:12.162Z,101457.34
2023-05-10T03:11:49.675Z,101465.00
2023-05-10T03:14:23.663Z,101465.00
2023-05-10T03:16:55.410Z,101453.63
2023-05-10T03:19:26.901Z,101460.31
2023-05-10T03:21:55.239Z,101465.66
2023-05-10T03:24:24.313Z,101459.47
2023-05-10T03:26:53.752Z,101457.97
2023-05-10T03:29:21.766Z,101458.63
2023-05-10T03:31:49.879Z,101459.31
2023-05-10T03:34:18.401Z,101455.31
2023-05-10T03:36:46.379Z,101456.56
2023-05-10T03:39:14.421Z,101448.66
2023-05-10T03:41:43.618Z,101454.81
2023-05-10T03:44:13.050Z,101463.69
2023-05-10T03:46:41.007Z,101458.50
2023-05-10T03:49:08.954Z,101459.19
2023-05-10T03:51:38.297Z,101452.63
2023-05-10T03:54:06.416Z,101451.31
2023-05-10T03:56:34.760Z,101444.44
2023-05-10T03:59:02.661Z,101454.00
2023-05-10T04:01:33.879Z,101452.00
2023-05-10T04:04:02.188Z,101446.34
2023-05-10T04:06:33.047Z,101448.03
2023-05-10T04:09:04.932Z,101453.16
2023-05-10T04:11:32.945Z,101449.63
2023-05-10T04:14:00.838Z,101450.94
2023-05-10T04:16:28.848Z,101444.22
2023-05-10T04:18:58.398Z,101447.38
2023-05-10T04:21:26.494Z,101453.53
2023-05-10T04:23:54.388Z,101437.81
2023-05-10T04:26:23.051Z,101443.16
2023-05-10T04:28:50.949Z,101447.13
2023-05-10T04:31:18.928Z,101443.41
2023-05-10T04:33:46.902Z,101455.31
2023-05-10T04:36:16.323Z,101452.50
2023-05-10T04:38:44.796Z,101449.47
2023-05-10T04:41:12.906Z,101449.22
2023-05-10T04:43:40.825Z,101449.19
2023-05-10T04:46:08.992Z,101440.34
2023-05-10T04:48:36.976Z,101448.00
2023-05-10T04:51:05.808Z,101453.13
2023-05-10T04:53:35.460Z,101448.63
2023-05-10T04:56:03.391Z,101451.66
2023-05-10T04:58:31.440Z,101463.75
2023-05-10T05:00:59.436Z,101460.41
2023-05-10T05:03:27.522Z,101462.78
2023-05-10T05:05:55.505Z,101462.44
2023-05-10T05:08:23.834Z,101456.97
2023-05-10T05:10:53.160Z,101462.44
2023-05-10T05:13:21.212Z,101475.78
2023-05-10T05:15:49.217Z,101466.81
2023-05-10T05:18:17.245Z,101467.19
2023-05-10T05:20:45.215Z,101466.19
2023-05-10T05:23:13.193Z,101470.84
2023-05-10T05:25:41.171Z,101470.41
2023-05-10T05:28:10.691Z,101467.66
2023-05-10T05:30:38.620Z,101474.81
2023-05-10T05:33:06.572Z,101471.00
2023-05-10T05:35:34.553Z,101474.16
2023-05-10T05:38:02.564Z,101483.44
2023-05-10T05:40:30.453Z,101481.19
2023-05-10T05:42:58.513Z,101483.44
2023-05-10T05:45:27.773Z,101481.44
2023-05-10T05:47:55.995Z,101490.69
2023-05-10T05:50:23.933Z,101486.03
2023-05-10T05:52:52.109Z,101493.88
2023-05-10T05:55:20.176Z,101502.28
2023-05-10T05:57:48.248Z,101500.97
2023-05-10T06:00:17.122Z,101509.44
2023-05-10T06:02:48.386Z,101506.91
2023-05-10T06:05:16.983Z,101506.00
2023-05-10T06:07:45.015Z,101509.06
2023-05-10T06:10:12.992Z,101511.88
2023-05-10T06:12:40.908Z,101508.75
2023-05-10T06:15:10.244Z,101509.84
2023-05-10T06:17:39.877Z,101510.50
2023-05-10T06:20:10.764Z,101498.53
2023-05-10T06:22:38.793Z,101512.94
2023-05-10T06:25:07.673Z,101507.97
2023-05-10T06:27:35.620Z,101509.66
2023-05-10T06:30:12.355Z,101520.00
2023-05-10T06:32:41.531Z,101510.16
2023-05-10T06:35:11.517Z,101508.09
2023-05-10T06:37:39.461Z,101510.09
2023-05-10T06:40:08.984Z,101525.13
2023-05-10T06:42:36.936Z,101516.84
2023-05-10T06:45:06.341Z,101517.53
2023-05-10T06:47:36.473Z,101524.56
2023-05-10T06:50:06.986Z,101516.19
2023-05-10T06:52:36.310Z,101510.22
2023-05-10T06:55:04.604Z,101523.63
2023-05-10T06:57:32.525Z,101528.13
2023-05-10T07:00:00.706Z,101518.69
2023-05-10T07:02:28.732Z,101525.63
2023-05-10T07:04:56.821Z,101532.94
2023-05-10T07:07:25.547Z,101537.63
2023-05-10T07:09:55.117Z,101537.78
2023-05-10T07:12:23.075Z,101532.94
2023-05-10T07:14:51.203Z,101540.19
2023-05-10T07:17:19.239Z,101548.13
2023-05-10T07:19:47.326Z,101537.97
2023-05-10T07:22:15.401Z,101534.00
2023-05-10T07:24:43.599Z,101525.97
2023-05-10T07:27:13.877Z,101537.50
2023-05-10T07:29:41.921Z,101527.38
2023-05-10T07:32:09.972Z,101530.31
2023-05-10T07:34:38.052Z,101528.44
2023-05-10T07:37:07.178Z,101542.09
2023-05-10T07:39:35.297Z,101537.09
2023-05-10T07:42:06.709Z,101545.47
2023-05-10T07:44:36.166Z,101529.78
2023-05-10T07:47:04.159Z,101535.47
2023-05-10T07:49:32.274Z,101535.47
2023-05-10T07:52:00.404Z,101538.69
2023-05-10T07:54:30.195Z,101537.50
2023-05-10T07:56:58.314Z,101531.38
2023-05-10T07:59:26.261Z,101536.84
2023-05-10T08:01:57.215Z,101554.59
2023-05-10T08:04:25.653Z,101545.03
2023-05-10T08:06:53.614Z,101545.03
2023-05-10T08:09:25.270Z,101556.78
2023-05-10T08:11:53.796Z,101561.28
2023-05-10T08:14:21.837Z,101543.69
2023-05-10T08:16:49.897Z,101546.41
2023-05-10T08:19:20.923Z,101552.81
2023-05-10T08:21:49.162Z,101549.31
2023-05-10T08:24:17.558Z,101554.88
2023-05-10T08:26:45.574Z,101550.28
2023-05-10T08:29:13.484Z,101556.78
2023-05-10T08:31:41.538Z,101552.44
2023-05-10T08:34:09.723Z,101558.47
2023-05-10T08:36:39.048Z,101554.88
2023-05-10T08:39:13.487Z,101553.72
2023-05-10T08:41:47.830Z,101557.91
2023-05-10T08:44:15.921Z,101548.59
2023-05-10T08:46:45.170Z,101555.47
2023-05-10T08:49:13.256Z,101563.34
2023-05-10T08:51:43.904Z,101563.00
2023-05-10T08:54:11.928Z,101555.63
2023-05-10T08:56:39.878Z,101553.91
2023-05-10T08:59:08.015Z,101562.25
2023-05-10T09:01:35.974Z,101563.34
2023-05-10T09:04:04.068Z,101547.72
2023-05-10T09:06:33.190Z,101567.81
2023-05-10T09:09:02.610Z,101557.34
2023-05-10T09:11:31.240Z,101561.91
2023-05-10T09:13:59.220Z,101549.16
2023-05-10T09:16:27.354Z,101566.56
2023-05-10T09:18:56.452Z,101571.59
2023-05-10T09:21:25.379Z,101560.91
2023-05-10T09:23:56.113Z,101570.56
2023-05-10T09:26:29.141Z,101575.03
2023-05-10T09:28:59.298Z,101573.38
2023-05-10T09:31:27.917Z,101565.88
2023-05-10T09:33:56.207Z,101566.06
2023-05-10T09:36:24.177Z,101563.66
2023-05-10T09:38:53.840Z,101568.84
2023-05-10T09:41:23.573Z,101571.88
2023-05-10T09:43:53.252Z,101576.78
2023-05-10T09:46:21.426Z,101564.00
2023-05-10T09:48:50.427Z,101577.16
2023-05-10T09:51:21.611Z,101571.94
2023-05-10T09:53:51.591Z,101576.16
2023-05-10T09:56:37.044Z,101574.13
2023-05-10T09:59:06.593Z,101582.84
2023-05-10T10:01:36.142Z,101574.28
2023-05-10T10:04:05.805Z,101581.19
2023-05-10T10:06:37.914Z,101588.19
2023-05-10T10:09:08.960Z,101578.19
2023-05-10T10:11:42.891Z,101588.22
2023-05-10T10:14:13.809Z,101590.41
2023-05-10T10:16:55.502Z,101588.56
2023-05-10T10:19:32.425Z,101595.59
2023-05-10T10:22:01.231Z,101575.16
2023-05-10T10:24:32.545Z,101593.59
2023-05-10T10:27:06.692Z,101596.91
2023-05-10T10:29:37.842Z,101595.41
2023-05-10T10:32:09.059Z,101600.28
2023-05-10T10:34:38.052Z,101581.38
2023-05-10T10:37:06.413Z,101591.06
2023-05-10T10:39:38.024Z,101584.03
2023-05-10T10:42:06.457Z,101606.47
2023-05-10T10:44:40.298Z,101588.72
2023-05-10T10:47:30.697Z,101598.94
2023-05-10T10:50:05.677Z,101604.28
2023-05-10T10:52:34.775Z,101596.97
2023-05-10T14:53:47.789Z,101593.56
2023-05-10T14:56:19.146Z,101599.53
2023-05-10T14:59:05.564Z,101605.22
2023-05-10T15:01:50.481Z,101606.53
2023-05-10T15:04:28.845Z,101606.88
2023-05-10T15:07:22.614Z,101598.19
2023-05-10T15:09:58.054Z,101610.59
2023-05-10T15:12:40.790Z,101614.34
2023-05-10T15:15:16.850Z,101608.03
2023-05-10T15:17:52.318Z,101603.81
2023-05-10T15:20:31.286Z,101604.34
2023-05-10T15:23:15.753Z,101599.28
2023-05-10T15:26:02.147Z,101611.84
2023-05-10T15:28:50.536Z,101617.59
2023-05-10T15:31:28.179Z,101611.72
2023-05-10T15:34:06.013Z,101617.41
2023-05-10T15:36:49.120Z,101614.03
2023-05-10T15:39:20.818Z,101609.00
2023-05-10T15:42:04.424Z,101611.81
2023-05-10T15:44:41.718Z,101585.19
2023-05-10T15:47:20.627Z,101608.16
2023-05-10T15:49:50.119Z,101605.31
2023-05-10T15:52:21.097Z,101614.03
2023-05-10T15:54:56.024Z,101611.84
2023-05-10T15:57:31.858Z,101613.34
2023-05-10T16:00:01.034Z,101603.63
2023-05-10T16:03:09.769Z,101601.63
2023-05-10T16:05:40.502Z,101596.59
2023-05-10T16:08:17.221Z,101602.81
2023-05-10T16:11:01.023Z,101632.16
2023-05-10T16:13:51.834Z,101612.06
2023-05-10T16:16:23.518Z,101606.03
2023-05-10T16:18:56.509Z,101613.75
2023-05-10T16:21:30.592Z,101596.47
2023-05-10T16:24:03.573Z,101615.44
2023-05-10T16:26:43.724Z,101603.75
2023-05-10T16:29:13.926Z,101603.66
2023-05-10T16:31:49.585Z,101606.69
2023-05-10T16:34:29.907Z,101621.53
2023-05-10T16:37:20.555Z,101613.41
2023-05-10T16:39:52.723Z,101614.13
2023-05-10T16:42:30.530Z,101613.41
2023-05-10T16:45:20.555Z,101616.84
2023-05-10T16:47:50.767Z,101614.28
2023-05-10T16:50:27.826Z,101616.75
2023-05-10T16:53:12.035Z,101630.16
2023-05-10T16:55:47.706Z,101623.75
2023-05-10T16:58:28.566Z,101623.31
2023-05-10T17:01:15.739Z,101623.38
2023-05-10T17:03:49.736Z,101620.34
2023-05-10T17:06:23.889Z,101631.94
2023-05-10T17:08:55.645Z,101631.22
2023-05-10T17:11:26.177Z,101625.28
2023-05-10T17:14:10.473Z,101637.00
2023-05-10T17:16:57.486Z,101629.75
2023-05-10T17:22:22.622Z,101626.44
2023-05-10T17:25:12.023Z,101621.97
2023-05-10T17:27:45.471Z,101621.84
2023-05-10T17:30:20.595Z,101619.38
2023-05-10T17:33:03.607Z,101620.44
2023-05-10T17:35:40.533Z,101627.91
2023-05-10T17:38:12.330Z,101626.38
2023-05-10T17:40:49.569Z,101610.94
2023-05-10T17:43:22.589Z,101595.47
2023-05-10T17:45:53.319Z,101610.88
2023-05-10T17:48:30.956Z,101621.53
2023-05-10T17:51:20.547Z,101625.81
2023-05-10T17:53:58.653Z,101625.53
2023-05-10T17:56:52.479Z,101614.88
2023-05-10T17:59:31.022Z,101625.22
2023-05-10T18:02:08.859Z,101625.81
2023-05-10T18:04:52.597Z,101620.47
2023-05-10T18:07:40.105Z,101622.16
2023-05-10T18:10:25.628Z,101614.41
2023-05-10T18:13:09.615Z,101621.91
2023-05-10T18:15:47.939Z,101607.81
2023-05-10T18:18:25.550Z,101618.19
2023-05-10T18:21:20.535Z,101605.97
2023-05-10T18:23:52.071Z,101611.13
2023-05-10T18:26:30.693Z,101608.94
2023-05-10T18:29:18.374Z,101618.53
2023-05-10T18:31:49.751Z,101617.91
2023-05-10T18:34:26.967Z,101614.53
2023-05-10T18:37:00.876Z,101612.78
2023-05-10T18:39:51.116Z,101610.16
2023-05-10T18:45:29.705Z,101630.78
2023-05-10T18:48:17.422Z,101625.25
2023-05-10T18:50:54.798Z,101636.47
2023-05-10T18:53:26.090Z,101621.34
2023-05-10T18:56:14.086Z,101640.00
2023-05-10T18:58:53.445Z,101634.94
2023-05-10T19:04:25.267Z,101644.22
2023-05-10T19:07:09.678Z,101635.66
2023-05-10T19:09:57.555Z,101639.84
2023-05-10T19:12:33.869Z,101646.69
2023-05-10T19:15:03.343Z,101644.44
2023-05-10T19:17:38.851Z,101643.94
2023-05-10T19:20:20.548Z,101651.75
2023-05-10T19:25:29.676Z,101644.34
2023-05-10T19:28:05.440Z,101635.78
2023-05-10T19:31:12.362Z,101645.63
2023-05-10T19:33:50.452Z,101641.47
2023-05-10T19:36:19.810Z,101645.25
2023-05-10T19:38:54.144Z,101647.81
2023-05-10T19:41:44.487Z,101655.84
2023-05-10T19:44:14.092Z,101655.56
2023-05-10T19:49:50.533Z,101658.44
2023-05-10T19:52:29.654Z,101649.44
2023-05-10T19:55:43.994Z,101656.53
2023-05-10T19:58:29.871Z,101659.44
2023-05-10T20:01:09.854Z,101659.91
2023-05-10T20:03:49.692Z,101657.38
2023-05-10T20:06:29.812Z,101653.44
2023-05-10T20:09:06.274Z,101660.75
2023-05-10T20:11:57.084Z,101665.72
2023-05-10T20:14:50.961Z,101662.34
2023-05-10T20:17:48.725Z,101671.72
2023-05-10T20:20:26.754Z,101670.06
2023-05-10T20:23:07.681Z,101677.06
2023-05-10T20:25:49.762Z,101674.38
2023-05-10T20:28:43.884Z,101674.56
2023-05-10T20:31:30.724Z,101667.41
2023-05-10T20:37:09.872Z,101680.34
2023-05-10T20:40:15.959Z,101683.72
2023-05-10T20:43:02.473Z,101672.09
2023-05-10T20:45:39.823Z,101676.91
2023-05-10T20:48:22.548Z,101683.53
2023-05-10T20:51:12.350Z,101682.25
2023-05-10T20:53:50.519Z,101683.94
2023-05-10T20:56:30.583Z,101678.28
2023-05-10T20:59:29.877Z,101680.13
2023-05-10T21:02:10.030Z,101676.84
2023-05-10T21:05:00.457Z,101676.16
2023-05-10T21:07:49.005Z,101687.00
2023-05-10T21:10:43.202Z,101671.66
2023-05-10T21:13:12.924Z,101680.53
2023-05-10T21:15:49.080Z,101684.69
2023-05-10T21:18:38.336Z,101672.94
2023-05-10T21:21:29.925Z,101674.34
2023-05-10T21:24:16.657Z,101677.69
2023-05-10T21:26:57.298Z,101676.00
2023-05-10T21:29:49.172Z,101673.19
2023-05-10T21:32:31.839Z,101676.69
2023-05-10T21:35:30.438Z,101670.97
2023-05-10T21:38:08.639Z,101661.50
2023-05-10T21:40:50.523Z,101656.16
2023-05-10T21:43:52.275Z,101660.41
2023-05-10T21:46:44.200Z,101664.38
2023-05-10T21:49:21.105Z,101662.41
2023-05-10T21:51:53.979Z,101669.41
2023-05-10T21:54:48.677Z,101662.06
2023-05-10T21:57:41.363Z,101661.22
2023-05-10T22:00:41.354Z,101652.47
2023-05-10T22:03:23.024Z,101654.84
2023-05-10T22:05:59.225Z,101648.19
2023-05-10T22:09:19.679Z,101654.09
2023-05-10T22:11:54.519Z,101649.88
2023-05-10T22:14:32.280Z,101655.22
2023-05-10T22:20:31.489Z,101645.47
2023-05-10T22:23:31.241Z,101644.16
2023-05-10T22:26:10.067Z,101645.84
2023-05-10T22:32:00.432Z,101644.16
2023-05-10T22:34:53.958Z,101650.06
2023-05-10T22:37:50.672Z,101648.16
2023-05-10T22:40:25.533Z,101648.81
2023-05-10T22:46:13.315Z,101644.31
2023-05-10T22:49:06.166Z,101651.41
2023-05-10T22:51:52.714Z,101645.75
2023-05-10T22:54:52.778Z,101647.59
2023-05-10T22:57:43.867Z,101648.44
2023-05-10T23:00:28.128Z,101654.75
2023-05-10T23:03:28.159Z,101653.06
2023-05-10T23:06:33.544Z,101654.25
2023-05-10T23:09:09.140Z,101657.06
2023-05-10T23:11:51.811Z,101647.22
2023-05-10T23:15:03.419Z,101654.91
2023-05-10T23:17:51.913Z,101649.41
2023-05-10T23:20:43.964Z,101664.47
2023-05-10T23:23:38.825Z,101652.78
2023-05-10T23:26:28.846Z,101652.78
2023-05-10T23:29:21.608Z,101649.41
2023-05-10T23:32:03.501Z,101653.06
2023-05-10T23:35:05.476Z,101660.81
2023-05-10T23:37:45.761Z,101652.78
2023-05-10T23:43:16.702Z,101657.53
2023-05-10T23:46:04.541Z,101660.56
2023-05-10T23:48:58.024Z,101658.22
2023-05-10T23:51:51.076Z,101649.50
2023-05-10T23:54:45.874Z,101648.53
2023-05-10T23:57:43.877Z,101657.53
